Latest Weather Observations for Marree Airport

IDS60801

Issued at 5:31 pm CST Friday 22 May 2015 (issued every 30 minutes, with the page automatically refreshed every 10 minutes)

About weather observations | Map of weather stations | Latest weather observations for SA | Other Formats
Station Details ID: 017126 Name: MARREE AERO Lat: -29.66 Lon: 138.07 Height: 50.0 m
Data from the previous 72 hours. | See also: Recent months for locations in South Australia
Date/Time
CST
Temp
°C
App
Temp
°C
Dew
Point
Rel
Hum
%
Delta-T
°C
Wind Press
QNH
hPa
Press
MSL
hPa
Rain
since 9 am
mm
Dir
 
Spd
km/h
Gust
km/h
Spd
kts
Gust
kts
22/05:30pm 15.5 12.2 2.3 41 5.9 SE 9 11 5 6 1027.7 - 0.0
22/05:00pm 16.6 12.8 1.9 37 6.5 SE 11 13 6 7 1027.9 - 0.0
22/04:30pm 17.0 13.1 1.4 35 6.9 SE 11 17 6 9 1028.0 - 0.0
22/04:00pm 17.1 14.0 1.5 35 6.9 SSE 7 13 4 7 1028.1 - 0.0
22/03:30pm 17.2 13.7 1.2 34 7.1 SE 9 13 5 7 1028.2 - 0.0
22/03:00pm 17.3 14.2 1.3 34 7.1 SSE 7 17 4 9 1028.4 1028.4 0.0
22/02:30pm 17.2 14.3 1.2 34 7.1 SE 6 11 3 6 1028.4 - 0.0
22/02:00pm 16.8 13.3 1.3 35 6.9 SSE 9 17 5 9 1028.4 - 0.0
22/01:30pm 16.8 13.8 1.7 36 6.7 ESE 7 13 4 7 1028.9 - 0.0
22/01:00pm 16.3 13.2 1.6 37 6.5 SSE 7 13 4 7 1029.1 - 0.0
22/12:30pm 16.4 13.4 2.1 38 6.4 NNW 7 13 4 7 1029.6 - 0.0
22/12:00pm 15.9 13.5 2.0 39 6.1 W 4 11 2 6 1030.3 1030.3 0.0
22/11:30am 15.2 12.2 2.1 41 5.8 S 7 17 4 9 1030.7 - 0.0
22/11:00am 14.7 11.8 2.6 44 5.4 SE 7 13 4 7 1031.2 - 0.0
22/10:30am 14.8 12.1 2.7 44 5.4 E 6 9 3 5 1031.3 - 0.0
22/10:00am 13.6 9.5 2.2 46 5.0 SSE 13 20 7 11 1031.4 - 0.0
22/09:30am 12.3 10.1 3.3 54 4.0 SSE 4 9 2 5 1031.4 - 0.0
22/09:00am 9.9 7.3 3.4 64 2.8 SSE 6 7 3 4 1030.9 1030.9 0.0
22/08:30am 7.4 4.7 2.7 72 1.9 SE 6 7 3 4 1030.6 - 0.0
22/08:00am 5.5 3.9 2.7 82 1.1 CALM 0 0 0 0 1030.5 - 0.0
22/07:30am 3.7 2.1 2.5 92 0.5 CALM 0 0 0 0 1030.0 - 0.0
22/07:00am 2.9 -0.9 2.0 94 0.4 SE 11 11 6 6 1029.5 - 0.0
22/06:30am 3.1 -0.3 2.1 93 0.4 SE 9 11 5 6 1029.3 - 0.0
22/06:00am 3.8 0.8 2.3 90 0.6 ESE 7 9 4 5 1029.1 1029.1 0.0
22/05:30am 4.6 3.1 2.8 88 0.7 CALM 0 6 0 3 1028.9 - 0.0
22/05:00am 5.0 0.6 2.5 84 1.0 S 15 15 8 8 1028.5 - 0.0
22/04:30am 5.5 1.1 2.8 83 1.1 S 15 17 8 9 1028.2 - 0.0
22/04:00am 5.9 1.6 3.1 82 1.2 S 15 15 8 8 1028.0 - 0.0
22/03:30am 6.2 2.9 2.7 78 1.4 SSE 9 11 5 6 1028.0 - 0.0
22/03:00am 8.0 3.8 3.8 75 1.8 S 15 17 8 9 1028.1 1028.1 0.0
22/02:30am 8.9 4.4 4.3 73 2.0 S 17 20 9 11 1028.1 - 0.0
22/02:00am 9.1 4.3 4.5 73 2.0 S 19 22 10 12 1028.2 - 0.0
22/01:30am 9.4 4.6 4.6 72 2.1 S 19 22 10 12 1028.4 - 0.0
22/01:00am 9.8 4.8 4.6 70 2.3 S 20 22 11 12 1028.4 - 0.0
22/12:30am 10.1 5.0 4.3 67 2.6 S 20 24 11 13 1028.5 - 0.0
22/12:00am 10.5 5.4 4.2 65 2.8 S 20 24 11 13 1028.5 1028.5 0.0
 
Date/Time
CST
Temp
°C
App
Temp
°C
Dew
Point
Rel
Hum
%
Delta-T
°C
Wind Press
QNH
hPa
Press
MSL
hPa
Rain
since 9 am
mm
Dir
 
Spd
km/h
Gust
km/h
Spd
kts
Gust
kts
21/11:30pm 10.7 5.9 4.6 66 2.7 S 19 24 10 13 1028.6 - 0.0
21/11:00pm 11.1 6.2 5.0 66 2.8 S 20 24 11 13 1028.6 - 0.0
21/10:30pm 11.4 6.4 4.8 64 3.0 S 20 26 11 14 1028.6 - 0.0
21/10:00pm 12.1 6.4 5.0 62 3.3 S 24 30 13 16 1028.6 - 0.0
21/09:30pm 12.3 6.6 5.0 61 3.4 S 24 30 13 16 1028.5 - 0.0
21/09:00pm 12.2 7.4 4.7 60 3.4 S 19 22 10 12 1028.4 1028.4 0.0
21/08:30pm 12.6 7.5 4.3 57 3.7 S 20 26 11 14 1028.4 - 0.0
21/08:00pm 13.2 7.8 4.4 55 4.0 S 22 26 12 14 1028.1 - 0.0
21/07:30pm 13.3 7.5 4.2 54 4.2 S 24 30 13 16 1027.7 - 0.0
21/07:00pm 13.8 7.6 4.1 52 4.4 S 26 32 14 17 1027.4 - 0.0
21/06:30pm 14.1 7.9 4.1 51 4.6 SSW 26 33 14 18 1027.0 - 0.0
21/06:00pm 14.5 8.3 4.2 50 4.7 SSW 26 35 14 19 1026.8 1026.8 0.0
21/05:30pm 15.1 8.4 3.9 47 5.2 SSW 28 35 15 19 1026.6 - 0.0
21/05:00pm 15.8 8.1 3.6 44 5.6 SSW 33 41 18 22 1026.5 - 0.0
21/04:30pm 16.3 8.6 3.4 42 5.9 S 33 41 18 22 1026.3 - 0.0
21/04:00pm 16.7 9.0 3.4 41 6.1 SSW 33 41 18 22 1026.3 - 0.0
21/03:30pm 17.0 9.9 3.3 40 6.3 SSW 30 41 16 22 1026.2 - 0.0
21/03:00pm 16.7 10.0 3.7 42 6.0 S 28 37 15 20 1026.0 1026.0 0.0
21/02:30pm 17.5 11.3 4.1 41 6.3 SSW 26 39 14 21 1025.8 - 0.0
21/02:00pm 17.2 11.0 4.5 43 6.0 SSW 26 39 14 21 1025.7 - 0.0
21/01:30pm 17.8 12.8 4.4 41 6.4 S 20 30 11 16 1025.9 - 0.0
21/01:00pm 16.6 11.2 4.3 44 5.8 S 22 33 12 18 1026.3 - 0.0
21/12:30pm 16.3 10.0 3.7 43 5.8 S 26 35 14 19 1026.6 - 0.0
21/12:00pm 15.6 8.9 3.7 45 5.4 S 28 39 15 21 1027.2 1027.2 0.0
21/11:00am 15.6 9.1 6.6 55 4.4 S 30 39 16 21 1027.7 - 0.0
21/10:30am 14.3 8.3 7.1 62 3.5 S 28 33 15 18 1027.8 - 0.0
21/10:00am 13.2 7.7 7.4 68 2.8 S 26 32 14 17 1027.6 - 0.0
21/09:30am 11.9 6.9 8.0 77 1.9 S 24 32 13 17 1027.7 - 0.0
21/09:00am 10.9 5.5 8.1 83 1.4 S 26 30 14 16 1027.5 1027.5 1.0
21/08:30am 10.1 4.8 8.4 89 0.8 S 26 32 14 17 1027.2 - 1.0
21/08:00am 9.2 5.6 8.4 95 0.4 SSW 17 24 9 13 1027.1 - 1.0
21/07:30am 8.2 3.8 7.4 95 0.4 SSW 20 24 11 13 1026.4 - 1.0
21/07:00am 7.8 3.3 7.1 95 0.3 SSW 20 22 11 12 1026.0 - 1.0
21/06:30am 8.0 3.7 7.2 95 0.4 SSW 19 20 10 11 1025.5 - 1.0
21/06:00am 8.0 4.5 7.2 95 0.4 S 15 17 8 9 1025.1 1025.1 1.0
21/05:30am 8.9 4.6 7.8 93 0.5 SSW 20 22 11 12 1024.6 - 1.0
21/05:00am 9.2 5.5 8.1 93 0.5 SSW 17 20 9 11 1024.3 - 1.0
21/04:30am 9.9 5.8 7.8 87 1.0 SSW 19 24 10 13 1024.0 - 1.0
21/04:00am 10.8 6.7 7.9 82 1.4 SSW 19 24 10 13 1023.8 - 1.0
21/03:30am 10.8 7.1 8.0 83 1.4 S 17 22 9 12 1023.7 - 1.0
21/03:00am 10.9 6.5 7.6 80 1.6 S 20 24 11 13 1023.5 1023.5 1.0
21/02:30am 10.7 6.0 7.6 81 1.5 S 22 24 12 13 1023.6 - 1.0
21/02:00am 10.8 6.7 7.7 81 1.5 S 19 24 10 13 1023.8 - 1.0
21/01:30am 11.1 7.1 8.1 82 1.5 SSW 19 22 10 12 1023.7 - 1.0
21/01:00am 11.4 7.3 8.6 83 1.4 SSW 20 24 11 13 1023.6 - 1.0
21/12:30am 11.3 8.7 9.2 87 1.1 SSW 13 15 7 8 1023.6 - 1.0
21/12:00am 11.9 9.4 11.0 94 0.5 SW 15 17 8 9 1023.4 1023.4 1.0
 
Date/Time
CST
Temp
°C
App
Temp
°C
Dew
Point
Rel
Hum
%
Delta-T
°C
Wind Press
QNH
hPa
Press
MSL
hPa
Rain
since 9 am
mm
Dir
 
Spd
km/h
Gust
km/h
Spd
kts
Gust
kts
20/11:30pm 12.4 10.4 11.6 95 0.4 WSW 13 15 7 8 1023.1 - 1.0
20/11:00pm 12.5 10.9 11.7 95 0.4 W 11 13 6 7 1023.1 - 1.0
20/10:30pm 12.8 10.9 11.9 94 0.5 WNW 13 17 7 9 1023.2 - 1.0
20/10:00pm 13.6 11.2 10.0 79 1.9 S 13 15 7 8 1022.9 - 0.4
20/09:30pm 13.4 10.7 10.2 81 1.7 S 15 20 8 11 1022.8 - 0.4
20/09:00pm 14.0 10.6 10.4 79 1.9 S 19 24 10 13 1022.7 1022.7 0.4
20/08:30pm 14.5 13.0 11.8 84 1.5 S 11 11 6 6 1022.5 - 0.4
20/08:00pm 14.4 13.3 13.0 91 0.8 WSW 11 13 6 7 1022.0 - 0.4
20/07:30pm 14.3 13.1 12.9 91 0.8 WSW 11 11 6 6 1021.8 - 0.4
20/07:00pm 14.1 12.9 12.8 92 0.7 WSW 11 19 6 10 1021.6 - 0.4
20/06:30pm 15.0 12.0 11.8 81 1.7 SW 19 24 10 13 1021.1 - 0.4
20/06:00pm 17.5 13.7 9.7 60 4.1 SW 20 35 11 19 1020.7 1020.7 0.0
20/05:30pm 18.1 14.8 8.1 52 5.1 SW 15 20 8 11 1020.1 - 0.0
20/05:00pm 18.7 14.5 8.1 50 5.5 SW 20 26 11 14 1019.8 - 0.0
20/04:30pm 19.3 14.3 8.0 48 5.8 SW 24 30 13 16 1019.5 - 0.0
20/04:00pm 19.6 16.2 7.7 46 6.1 SSW 15 22 8 12 1019.4 - 0.0
20/03:30pm 19.7 16.5 8.4 48 5.9 SW 15 22 8 12 1019.5 - 0.0
20/03:00pm 19.7 15.5 8.4 48 5.9 SSW 20 28 11 15 1019.3 1019.3 0.0
20/02:30pm 19.6 16.4 8.3 48 5.9 SW 15 22 8 12 1019.4 - 0.0
20/02:00pm 19.9 16.3 8.3 47 6.0 SW 17 26 9 14 1019.4 - 0.0
20/01:30pm 20.2 16.6 8.2 46 6.2 SW 17 24 9 13 1019.5 - 0.0
20/01:00pm 20.4 17.8 9.3 49 5.9 WSW 13 22 7 12 1019.6 - 0.0
20/12:30pm 19.0 16.8 9.5 54 5.0 SSW 11 20 6 11 1019.9 - 0.0
20/12:00pm 18.6 16.2 10.2 58 4.5 SSW 13 20 7 11 1020.3 1020.3 0.0
20/11:30am 17.9 16.6 10.0 60 4.2 S 7 13 4 7 1020.8 - 0.0
20/11:00am 17.8 15.1 10.2 61 4.1 S 15 19 8 10 1021.1 - 0.0
20/10:30am 17.0 15.7 11.3 69 3.1 SSE 9 13 5 7 1021.1 - 0.0
20/10:00am 16.8 15.6 11.5 71 2.9 S 9 15 5 8 1021.1 - 0.0
20/09:30am 16.9 15.0 11.8 72 2.8 SW 13 15 7 8 1021.3 - 0.0
20/09:00am 15.6 14.0 11.6 77 2.2 WSW 11 17 6 9 1021.0 1021.0 0.2
20/08:30am 14.6 13.5 10.8 78 2.0 WNW 7 9 4 5 1020.9 - 0.2
20/08:00am 13.6 12.6 10.2 80 1.8 NE 6 9 3 5 1020.3 - 0.2
20/07:30am 13.4 12.3 10.6 83 1.5 SSE 7 9 4 5 1019.6 - 0.2
20/07:00am 13.5 11.5 10.1 80 1.8 S 11 13 6 7 1018.7 - 0.2
20/06:30am 13.9 13.5 9.9 77 2.1 E 2 6 1 3 1018.7 - 0.2
20/06:00am 13.7 13.2 9.4 75 2.2 SSE 2 7 1 4 1018.6 1018.6 0.2
20/05:30am 14.8 12.4 10.0 73 2.5 SSW 13 15 7 8 1018.2 - 0.2
20/05:00am 15.0 11.4 10.0 72 2.6 SSW 19 24 10 13 1017.9 - 0.2
20/04:30am 15.1 11.4 10.3 73 2.5 SSW 20 28 11 15 1017.5 - 0.2
20/04:00am 13.7 11.2 9.7 77 2.1 SSW 13 15 7 8 1017.4 - 0.2
20/03:30am 14.3 11.5 10.1 76 2.2 SSW 15 20 8 11 1017.1 - 0.2
20/03:00am 14.4 11.1 9.6 73 2.5 S 17 20 9 11 1016.7 1016.7 0.2
20/02:30am 14.9 12.0 9.7 71 2.7 SSW 15 19 8 10 1017.2 - 0.2
20/02:00am 15.5 11.8 9.6 68 3.1 SSW 19 20 10 11 1016.9 - 0.2
20/01:30am 15.7 12.4 9.6 67 3.2 SSW 17 20 9 11 1016.6 - 0.2
20/01:00am 15.2 12.0 8.4 64 3.4 SSW 15 19 8 10 1016.7 - 0.2
20/12:30am 14.3 10.5 5.7 56 4.1 SSW 15 17 8 9 1016.8 - 0.2
20/12:00am 13.8 9.7 4.4 53 4.3 SW 15 17 8 9 1017.0 1017.0 0.2
 
Date/Time
CST
Temp
°C
App
Temp
°C
Dew
Point
Rel
Hum
%
Delta-T
°C
Wind Press
QNH
hPa
Press
MSL
hPa
Rain
since 9 am
mm
Dir
 
Spd
km/h
Gust
km/h
Spd
kts
Gust
kts
19/11:30pm 14.7 11.4 4.4 50 4.8 SW 11 13 6 7 1016.7 - 0.2
19/11:00pm 14.7 10.7 4.7 51 4.7 SW 15 15 8 8 1016.6 - 0.2
19/10:30pm 14.0 10.2 4.0 51 4.6 SW 13 13 7 7 1016.4 - 0.2
19/10:00pm 15.1 11.0 4.2 48 5.1 WSW 15 15 8 8 1016.3 - 0.2
19/09:30pm 15.5 10.9 3.6 45 5.5 W 17 17 9 9 1016.1 - 0.2
19/09:00pm 15.8 12.3 3.6 44 5.6 W 11 13 6 7 1016.0 1016.0 0.2
19/08:30pm 16.9 13.3 3.2 40 6.3 W 11 13 6 7 1015.8 - 0.2
19/08:00pm 17.7 13.4 3.2 38 6.7 NW 15 15 8 8 1015.6 - 0.2
19/07:30pm 18.9 14.6 3.1 35 7.4 NW 15 17 8 9 1015.0 - 0.2
19/07:00pm 19.2 15.3 3.4 35 7.4 NW 13 15 7 8 1014.8 - 0.2
19/06:30pm 20.7 16.4 3.0 31 8.4 NW 15 17 8 9 1014.4 - 0.2
19/06:00pm 22.4 17.7 3.0 28 9.3 WNW 17 20 9 11 1014.2 1014.1 0.2

Other Formats:

Comma delimited format used in spreadsheet applications
http://www.bom.gov.au/fwo/IDS60801/IDS60801.95480.axf

JavaScript Object Notation format (JSON) in row-major order
http://www.bom.gov.au/fwo/IDS60801/IDS60801.95480.json